createdAt,value
2024-02-13T00:00:27.378Z,41.35
2024-02-13T00:00:58.035Z,41.25
2024-02-13T00:01:28.682Z,41.35
2024-02-13T00:01:59.308Z,41.25
2024-02-13T00:02:29.984Z,41.25
2024-02-13T00:03:00.734Z,41.25
2024-02-13T00:03:31.451Z,41.14
2024-02-13T00:04:02.109Z,41.25
2024-02-13T00:04:32.757Z,41.14
2024-02-13T00:05:03.395Z,41.25
2024-02-13T00:05:34.041Z,41.35
2024-02-13T00:06:04.749Z,41.25
2024-02-13T00:06:35.369Z,41.14
2024-02-13T00:07:06.012Z,41.14
2024-02-13T00:07:36.719Z,41.25
2024-02-13T00:08:07.410Z,41.14
2024-02-13T00:08:45.222Z,41.14
2024-02-13T00:09:08.636Z,41.14
2024-02-13T00:09:39.287Z,41.14
2024-02-13T00:10:09.928Z,41.05
2024-02-13T00:10:40.554Z,41.14
2024-02-13T00:11:11.230Z,41.14
2024-02-13T00:11:41.894Z,41.14
2024-02-13T00:12:12.547Z,41.14
2024-02-13T00:12:43.213Z,41.05
2024-02-13T00:13:13.826Z,41.05
2024-02-13T00:13:44.512Z,41.14
2024-02-13T00:14:15.179Z,41.14
2024-02-13T00:14:47.325Z,41.14
2024-02-13T00:15:16.665Z,41.05
2024-02-13T00:15:47.344Z,41.25
2024-02-13T00:16:18.011Z,41.25
2024-02-13T00:16:48.655Z,41.25
2024-02-13T00:17:19.371Z,41.25
2024-02-13T00:17:50.078Z,41.25
2024-02-13T00:18:20.712Z,41.25
2024-02-13T00:18:51.560Z,41.14
2024-02-13T00:19:22.246Z,41.14
2024-02-13T00:19:52.929Z,41.25
2024-02-13T00:20:23.616Z,41.14
2024-02-13T00:20:54.258Z,41.35
2024-02-13T00:21:24.909Z,41.25
2024-02-13T00:21:55.572Z,41.25
2024-02-13T00:22:26.951Z,41.25
2024-02-13T00:22:57.112Z,41.35
2024-02-13T00:23:27.780Z,41.35
2024-02-13T00:23:58.454Z,41.25
2024-02-13T00:24:29.095Z,41.35
2024-02-13T00:24:59.749Z,41.25
2024-02-13T00:25:30.416Z,41.25
2024-02-13T00:26:01.075Z,41.35
2024-02-13T00:26:31.752Z,41.35
2024-02-13T00:27:02.360Z,41.14
2024-02-13T00:27:33.006Z,41.25
2024-02-13T00:28:03.653Z,41.25
2024-02-13T00:28:34.311Z,41.25
2024-02-13T00:29:05.022Z,41.25
2024-02-13T00:29:35.800Z,41.35
2024-02-13T00:30:06.405Z,41.25
2024-02-13T00:30:37.086Z,41.27
2024-02-13T00:31:07.713Z,41.25
2024-02-13T00:31:38.389Z,41.35
2024-02-13T00:32:09.131Z,41.35
2024-02-13T00:32:39.919Z,41.35
2024-02-13T00:33:10.686Z,41.35
2024-02-13T00:33:41.420Z,41.35
2024-02-13T00:34:12.223Z,41.35
2024-02-13T00:34:42.921Z,41.35
2024-02-13T00:35:13.680Z,41.25
2024-02-13T00:35:44.354Z,41.35
2024-02-13T00:36:14.982Z,41.27
2024-02-13T00:36:45.639Z,41.35
2024-02-13T00:37:16.314Z,41.25
2024-02-13T00:37:46.944Z,41.36
2024-02-13T00:38:17.626Z,41.35
2024-02-13T00:38:48.367Z,41.36
2024-02-13T00:39:19.071Z,41.25
2024-02-13T00:39:49.724Z,41.35
2024-02-13T00:40:20.395Z,41.36
2024-02-13T00:40:51.050Z,41.36
2024-02-13T00:41:21.739Z,41.35
2024-02-13T00:41:52.473Z,41.36
2024-02-13T00:42:23.149Z,41.36
2024-02-13T00:42:53.805Z,41.36
2024-02-13T00:43:24.465Z,41.36
2024-02-13T00:43:55.147Z,41.36
2024-02-13T00:44:25.834Z,41.36
2024-02-13T00:44:56.572Z,41.36
2024-02-13T00:45:27.180Z,41.36
2024-02-13T00:45:57.840Z,41.36
2024-02-13T00:46:28.491Z,41.36
2024-02-13T00:46:59.150Z,41.35
2024-02-13T00:47:29.849Z,41.36
2024-02-13T00:48:00.664Z,41.36
2024-02-13T00:48:31.475Z,41.36
2024-02-13T00:49:02.319Z,41.36
2024-02-13T00:49:33.105Z,41.36
2024-02-13T00:50:03.735Z,41.35
2024-02-13T00:50:34.448Z,41.36
2024-02-13T00:51:05.068Z,41.36
2024-02-13T00:51:35.709Z,41.27
2024-02-13T00:52:06.385Z,41.27
2024-02-13T00:52:37.045Z,41.27
2024-02-13T00:53:07.723Z,41.36
2024-02-13T00:53:38.390Z,41.36
2024-02-13T00:54:09.017Z,41.36
2024-02-13T00:54:39.694Z,41.27
2024-02-13T00:55:10.360Z,41.36
2024-02-13T00:55:41.013Z,41.27
2024-02-13T00:56:11.706Z,41.27
2024-02-13T00:56:42.577Z,41.36
2024-02-13T00:57:13.249Z,41.27
2024-02-13T00:57:43.915Z,41.27
2024-02-13T00:58:14.542Z,41.27
2024-02-13T00:58:45.221Z,41.27
2024-02-13T00:59:15.958Z,41.27
2024-02-13T00:59:46.737Z,41.27
2024-02-13T01:00:17.440Z,41.27
2024-02-13T01:00:48.055Z,41.27
2024-02-13T01:01:18.694Z,41.27
2024-02-13T01:01:49.350Z,41.27
2024-02-13T01:02:20.093Z,41.27
2024-02-13T01:02:50.818Z,41.27
2024-02-13T01:03:21.462Z,41.27
2024-02-13T01:03:53.089Z,41.27
2024-02-13T01:04:22.841Z,41.27
2024-02-13T01:04:53.473Z,41.27
2024-02-13T01:05:24.168Z,41.27
2024-02-13T01:05:54.983Z,41.27
2024-02-13T01:06:25.713Z,41.27
2024-02-13T01:06:56.473Z,41.27
2024-02-13T01:07:27.198Z,41.27
2024-02-13T01:07:57.833Z,41.27
2024-02-13T01:08:28.515Z,41.27
2024-02-13T01:08:59.152Z,41.27
2024-02-13T01:09:29.805Z,41.27
2024-02-13T01:10:00.658Z,41.27
2024-02-13T01:10:31.281Z,41.27
2024-02-13T01:11:01.958Z,41.27
2024-02-13T01:11:32.616Z,41.27
2024-02-13T01:12:03.332Z,41.16
2024-02-13T01:12:33.967Z,41.27
2024-02-13T01:13:04.631Z,41.16
2024-02-13T01:13:35.275Z,41.16
2024-02-13T01:14:05.940Z,41.16
2024-02-13T01:14:36.666Z,41.16
2024-02-13T01:15:07.311Z,41.16
2024-02-13T01:15:37.997Z,41.16
2024-02-13T01:16:08.621Z,41.16
2024-02-13T01:16:42.932Z,41.16
2024-02-13T01:17:10.122Z,41.16
2024-02-13T01:17:40.803Z,41.16
2024-02-13T01:18:11.554Z,41.16
2024-02-13T01:18:42.311Z,41.16
2024-02-13T01:19:12.993Z,41.16
2024-02-13T01:19:43.678Z,41.16
2024-02-13T01:20:14.378Z,41.16
2024-02-13T01:20:45.039Z,41.16
2024-02-13T01:21:15.754Z,41.16
2024-02-13T01:21:46.346Z,41.16
2024-02-13T01:22:17.034Z,41.16
2024-02-13T01:22:47.703Z,41.16
2024-02-13T01:23:18.409Z,41.16
2024-02-13T01:23:49.167Z,41.06
2024-02-13T01:24:19.814Z,41.16
2024-02-13T01:24:50.469Z,41.16
2024-02-13T01:25:21.132Z,41.16
2024-02-13T01:25:51.785Z,41.06
2024-02-13T01:26:22.502Z,41.06
2024-02-13T01:26:53.151Z,41.06
2024-02-13T01:27:23.770Z,41.06
2024-02-13T01:27:54.473Z,41.06
2024-02-13T01:28:25.141Z,41.06
2024-02-13T01:28:55.789Z,41.06
2024-02-13T01:29:26.729Z,41.06
2024-02-13T01:29:57.473Z,41.06
2024-02-13T01:30:28.111Z,41.06
2024-02-13T01:30:58.751Z,40.96
2024-02-13T01:31:29.404Z,41.06
2024-02-13T01:32:00.063Z,41.06
2024-02-13T01:32:30.806Z,41.06
2024-02-13T01:33:01.625Z,41.06
2024-02-13T01:33:32.476Z,41.06
2024-02-13T01:34:03.356Z,41.06
2024-02-13T01:34:34.128Z,41.06
2024-02-13T01:35:04.754Z,41.06
2024-02-13T01:35:35.544Z,40.96
2024-02-13T01:36:06.150Z,41.06
2024-02-13T01:36:36.821Z,40.96
2024-02-13T01:37:07.506Z,41.06
2024-02-13T01:37:38.198Z,40.96
2024-02-13T01:38:08.839Z,41.06
2024-02-13T01:38:39.526Z,41.06
2024-02-13T01:39:10.166Z,41.06
2024-02-13T01:39:40.824Z,41.06
2024-02-13T01:40:11.443Z,41.06
2024-02-13T01:40:42.141Z,41.06
2024-02-13T01:41:12.794Z,40.96
2024-02-13T01:41:43.462Z,40.96
2024-02-13T01:42:14.104Z,40.96
2024-02-13T01:42:44.726Z,40.96
2024-02-13T01:43:15.388Z,41.06
2024-02-13T01:43:46.000Z,41.06
2024-02-13T01:44:16.702Z,40.96
2024-02-13T01:44:47.432Z,40.96
2024-02-13T01:45:18.289Z,40.96
2024-02-13T01:45:48.994Z,40.96
2024-02-13T01:46:19.639Z,40.96
2024-02-13T01:46:50.324Z,40.96
2024-02-13T01:47:20.954Z,40.96
2024-02-13T01:47:51.678Z,40.96
2024-02-13T01:48:22.632Z,40.96
2024-02-13T01:48:52.906Z,40.96
2024-02-13T01:49:23.578Z,40.96
2024-02-13T01:49:54.216Z,40.96
2024-02-13T01:50:24.865Z,40.96
2024-02-13T01:50:55.691Z,40.86
2024-02-13T01:51:26.344Z,40.86
2024-02-13T01:51:56.980Z,40.86
2024-02-13T01:52:27.643Z,40.86
2024-02-13T01:52:58.294Z,40.86
2024-02-13T01:53:28.979Z,40.86
2024-02-13T01:53:59.713Z,40.96
2024-02-13T01:54:30.373Z,40.96
2024-02-13T01:55:01.040Z,40.86
2024-02-13T01:55:31.669Z,40.86
2024-02-13T01:56:02.352Z,40.96
2024-02-13T01:56:33.026Z,40.86
2024-02-13T01:57:03.677Z,40.86
2024-02-13T01:57:34.303Z,40.86
2024-02-13T01:58:04.964Z,40.86
2024-02-13T01:58:35.618Z,40.86
2024-02-13T01:59:06.260Z,40.86
2024-02-13T01:59:36.966Z,40.86
2024-02-13T02:00:07.585Z,40.86
2024-02-13T02:00:38.243Z,40.86
2024-02-13T02:01:09.027Z,40.86
2024-02-13T02:01:39.669Z,40.86
2024-02-13T02:02:10.418Z,40.86
2024-02-13T02:02:41.035Z,40.86
2024-02-13T02:03:11.688Z,40.86
2024-02-13T02:03:42.397Z,40.86
2024-02-13T02:04:13.065Z,40.86
2024-02-13T02:04:43.740Z,40.86
2024-02-13T02:05:14.431Z,40.86
2024-02-13T02:05:45.146Z,40.86
2024-02-13T02:06:15.948Z,40.86
2024-02-13T02:06:46.659Z,40.86
2024-02-13T02:07:17.209Z,40.86
2024-02-13T02:07:47.899Z,40.86
2024-02-13T02:08:18.572Z,40.86
2024-02-13T02:08:49.312Z,40.86
2024-02-13T02:09:19.977Z,40.86
2024-02-13T02:09:50.601Z,40.86
2024-02-13T02:10:21.302Z,40.86
2024-02-13T02:10:51.933Z,40.86
2024-02-13T02:11:22.653Z,40.86
2024-02-13T02:11:53.486Z,40.86
2024-02-13T02:12:24.180Z,40.96
2024-02-13T02:12:54.882Z,40.86
2024-02-13T02:13:25.511Z,40.86
2024-02-13T02:13:56.171Z,40.86
2024-02-13T02:14:26.851Z,40.86
2024-02-13T02:14:57.541Z,40.86
2024-02-13T02:15:28.162Z,40.86
2024-02-13T02:15:58.962Z,40.86
2024-02-13T02:16:29.684Z,40.86
2024-02-13T02:17:00.304Z,40.86
2024-02-13T02:17:31.071Z,40.86
2024-02-13T02:18:01.890Z,40.86
2024-02-13T02:18:32.708Z,40.86
2024-02-13T02:19:03.534Z,40.86
2024-02-13T02:19:34.231Z,40.86
2024-02-13T02:20:04.898Z,40.86
2024-02-13T02:20:35.573Z,40.86
2024-02-13T02:21:06.199Z,40.86
2024-02-13T02:21:36.874Z,40.86
2024-02-13T02:22:07.519Z,40.86
2024-02-13T02:22:38.465Z,40.86
2024-02-13T02:23:09.161Z,40.86
2024-02-13T02:23:39.852Z,40.86
2024-02-13T02:24:10.431Z,40.86
2024-02-13T02:24:41.115Z,40.86
2024-02-13T02:25:11.728Z,40.86
2024-02-13T02:25:42.420Z,40.86
2024-02-13T02:26:13.234Z,40.86
2024-02-13T02:26:44.020Z,40.86
2024-02-13T02:27:14.654Z,40.86
2024-02-13T02:27:45.313Z,40.86
2024-02-13T02:28:15.965Z,40.86
2024-02-13T02:28:46.604Z,40.86
2024-02-13T02:29:17.292Z,40.86
2024-02-13T02:29:48.022Z,40.86
2024-02-13T02:30:18.742Z,40.86
2024-02-13T02:30:49.364Z,40.86
2024-02-13T02:31:20.005Z,40.86
2024-02-13T02:31:50.700Z,40.86
2024-02-13T02:32:21.431Z,40.86
2024-02-13T02:32:52.193Z,40.86
2024-02-13T02:33:22.970Z,40.86
2024-02-13T02:33:53.833Z,40.86
2024-02-13T02:34:24.496Z,40.86
2024-02-13T02:34:55.174Z,40.86
2024-02-13T02:35:25.801Z,40.86
2024-02-13T02:35:56.557Z,40.86
2024-02-13T02:36:27.211Z,40.86
2024-02-13T02:36:58.008Z,40.86
2024-02-13T02:37:28.669Z,40.86
2024-02-13T02:37:59.324Z,40.86
2024-02-13T02:38:29.994Z,40.86
2024-02-13T02:39:00.753Z,40.86
2024-02-13T02:39:31.402Z,40.86
2024-02-13T02:40:02.071Z,40.86
2024-02-13T02:40:32.706Z,40.86
2024-02-13T02:41:03.370Z,40.86
2024-02-13T02:41:34.089Z,40.86
2024-02-13T02:42:04.751Z,40.86
2024-02-13T02:42:35.415Z,40.86
2024-02-13T02:43:06.124Z,40.86
2024-02-13T02:43:36.816Z,40.86
2024-02-13T02:44:07.415Z,40.86
2024-02-13T02:44:38.102Z,40.86
2024-02-13T02:45:08.784Z,40.86
2024-02-13T02:45:39.455Z,40.86
2024-02-13T02:46:10.088Z,40.86
2024-02-13T02:46:40.777Z,40.86
2024-02-13T02:47:11.481Z,40.86
2024-02-13T02:47:42.134Z,40.86
2024-02-13T02:48:12.914Z,40.86
2024-02-13T02:48:43.700Z,40.86
2024-02-13T02:49:14.380Z,40.86
2024-02-13T02:49:45.028Z,40.86
2024-02-13T02:50:15.739Z,40.86
2024-02-13T02:50:46.465Z,40.86
2024-02-13T02:51:17.139Z,40.86
2024-02-13T02:51:47.773Z,40.76
2024-02-13T02:52:18.439Z,40.86
2024-02-13T02:52:49.117Z,40.86
2024-02-13T02:53:20.585Z,40.76
2024-02-13T02:53:50.338Z,40.76
2024-02-13T02:54:20.965Z,40.86
2024-02-13T02:54:51.606Z,40.86
2024-02-13T02:55:22.257Z,40.86
2024-02-13T02:55:52.906Z,40.86
2024-02-13T02:56:23.656Z,40.76
2024-02-13T02:56:54.292Z,40.76
2024-02-13T02:57:24.977Z,40.86
2024-02-13T02:57:55.652Z,40.86
2024-02-13T02:58:26.289Z,40.76
2024-02-13T02:58:56.937Z,40.86
2024-02-13T02:59:27.614Z,40.76
2024-02-13T02:59:58.282Z,40.86
2024-02-13T03:00:28.973Z,40.76
2024-02-13T03:00:59.701Z,40.76
2024-02-13T03:01:30.341Z,40.76
2024-02-13T03:02:01.000Z,40.76
2024-02-13T03:02:31.774Z,40.76
2024-02-13T03:03:02.532Z,40.76
2024-02-13T03:03:33.197Z,40.76
2024-02-13T03:04:05.023Z,40.76
2024-02-13T03:04:34.676Z,40.76
2024-02-13T03:05:05.348Z,40.76
2024-02-13T03:05:36.066Z,40.76
2024-02-13T03:06:06.816Z,40.76
2024-02-13T03:06:37.509Z,40.76
2024-02-13T03:07:08.122Z,40.76
2024-02-13T03:07:38.817Z,40.76
2024-02-13T03:08:09.494Z,40.76
2024-02-13T03:08:40.156Z,40.76
2024-02-13T03:09:10.772Z,40.76
2024-02-13T03:09:41.459Z,40.76
2024-02-13T03:10:12.096Z,40.76
2024-02-13T03:10:42.799Z,40.76
2024-02-13T03:11:13.502Z,40.76
2024-02-13T03:11:44.237Z,40.76
2024-02-13T03:12:14.842Z,40.76
2024-02-13T03:12:45.608Z,40.76
2024-02-13T03:13:16.199Z,40.76
2024-02-13T03:13:46.841Z,40.76
2024-02-13T03:14:17.529Z,40.66
2024-02-13T03:14:48.183Z,40.76
2024-02-13T03:15:18.921Z,40.76
2024-02-13T03:15:49.524Z,40.66
2024-02-13T03:16:20.170Z,40.76
2024-02-13T03:16:50.813Z,40.76
2024-02-13T03:17:21.518Z,40.76
2024-02-13T03:17:52.324Z,40.76
2024-02-13T03:18:23.159Z,40.76
2024-02-13T03:18:53.926Z,40.66
2024-02-13T03:19:24.627Z,40.66
2024-02-13T03:19:55.226Z,40.66
2024-02-13T03:20:25.942Z,40.76
2024-02-13T03:20:56.645Z,40.66
2024-02-13T03:21:27.292Z,40.66
2024-02-13T03:21:57.937Z,40.66
2024-02-13T03:22:28.599Z,40.66
2024-02-13T03:22:59.295Z,40.66
2024-02-13T03:23:29.967Z,40.66
2024-02-13T03:24:00.611Z,40.66
2024-02-13T03:24:31.226Z,40.66
2024-02-13T03:25:05.230Z,40.66
2024-02-13T03:25:32.571Z,40.66
2024-02-13T03:26:03.221Z,40.76
2024-02-13T03:26:33.876Z,40.66
2024-02-13T03:27:04.519Z,40.66
2024-02-13T03:27:35.202Z,40.66
2024-02-13T03:28:06.079Z,40.66
2024-02-13T03:28:36.732Z,40.66
2024-02-13T03:29:07.354Z,40.66
2024-02-13T03:29:38.046Z,40.66
2024-02-13T03:30:08.661Z,40.66
2024-02-13T03:30:39.305Z,40.66
2024-02-13T03:31:09.954Z,40.66
2024-02-13T03:31:40.600Z,40.66
2024-02-13T03:32:11.318Z,40.66
2024-02-13T03:32:42.079Z,40.66
2024-02-13T03:33:12.956Z,40.66
2024-02-13T03:33:43.810Z,40.66
2024-02-13T03:34:14.531Z,40.66
2024-02-13T03:34:45.247Z,40.66
2024-02-13T03:35:15.894Z,40.66
2024-02-13T03:35:46.569Z,40.56
2024-02-13T03:36:17.168Z,40.66
2024-02-13T03:36:47.822Z,40.66
2024-02-13T03:37:18.469Z,40.66
2024-02-13T03:37:49.170Z,40.56
2024-02-13T03:38:19.854Z,40.66
2024-02-13T03:38:50.598Z,40.56
2024-02-13T03:39:21.238Z,40.66
2024-02-13T03:39:51.888Z,40.66
2024-02-13T03:40:22.537Z,40.66
2024-02-13T03:40:53.192Z,40.66
2024-02-13T03:41:23.866Z,40.56
2024-02-13T03:41:54.520Z,40.66
2024-02-13T03:42:25.143Z,40.66
2024-02-13T03:42:55.810Z,40.66
2024-02-13T03:43:26.496Z,40.66
2024-02-13T03:43:57.151Z,40.56
2024-02-13T03:44:27.893Z,40.56
2024-02-13T03:44:58.493Z,40.66
2024-02-13T03:45:29.185Z,40.56
2024-02-13T03:45:59.828Z,40.66
2024-02-13T03:46:30.463Z,40.56
2024-02-13T03:47:01.122Z,40.56
2024-02-13T03:47:31.840Z,40.56
2024-02-13T03:48:02.545Z,40.56
2024-02-13T03:48:33.367Z,40.56
2024-02-13T03:49:04.109Z,40.56
2024-02-13T03:49:34.817Z,40.56
2024-02-13T03:50:05.477Z,40.56
2024-02-13T03:50:36.154Z,40.56
2024-02-13T03:51:06.844Z,40.56
2024-02-13T03:51:37.446Z,40.56
2024-02-13T03:52:08.117Z,40.56
2024-02-13T03:52:38.785Z,40.56
2024-02-13T03:53:09.475Z,40.56
2024-02-13T03:53:40.190Z,40.56
2024-02-13T03:54:10.833Z,40.56
2024-02-13T03:54:41.467Z,40.56
2024-02-13T03:55:12.130Z,40.56
2024-02-13T03:55:42.787Z,40.56
2024-02-13T03:56:13.424Z,40.56
2024-02-13T03:56:44.111Z,40.56
2024-02-13T03:57:14.746Z,40.56
2024-02-13T03:57:45.380Z,40.56
2024-02-13T03:58:16.052Z,40.56
2024-02-13T03:58:46.730Z,40.56
2024-02-13T03:59:17.413Z,40.56
2024-02-13T03:59:48.028Z,40.56
2024-02-13T04:00:18.667Z,40.56
2024-02-13T04:00:49.356Z,40.56
2024-02-13T04:01:20.010Z,40.56
2024-02-13T04:01:50.638Z,40.56
2024-02-13T04:02:21.326Z,40.56
2024-02-13T04:02:52.096Z,40.56
2024-02-13T04:03:22.762Z,40.56
2024-02-13T04:03:53.584Z,40.56
2024-02-13T04:04:24.205Z,40.46
2024-02-13T04:04:54.928Z,40.56
2024-02-13T04:05:25.579Z,40.56
2024-02-13T04:05:56.300Z,40.56
2024-02-13T04:06:27.062Z,40.56
2024-02-13T04:06:57.687Z,40.56
2024-02-13T04:07:28.346Z,40.46
2024-02-13T04:07:59.016Z,40.56
2024-02-13T04:08:29.752Z,40.56
2024-02-13T04:09:00.408Z,40.56
2024-02-13T04:09:31.062Z,40.56
2024-02-13T04:10:01.752Z,40.56
2024-02-13T04:10:32.377Z,40.56
2024-02-13T04:11:03.003Z,40.56
2024-02-13T04:11:33.717Z,40.56
2024-02-13T04:12:04.311Z,40.46
2024-02-13T04:12:34.966Z,40.56
2024-02-13T04:13:05.603Z,40.56
2024-02-13T04:13:36.269Z,40.56
2024-02-13T04:14:06.949Z,40.56
2024-02-13T04:14:37.681Z,40.56
2024-02-13T04:15:08.281Z,40.56
2024-02-13T04:15:39.013Z,40.56
2024-02-13T04:16:09.646Z,40.56
2024-02-13T04:16:40.287Z,40.56
2024-02-13T04:17:11.000Z,40.56
2024-02-13T04:17:41.660Z,40.56
2024-02-13T04:18:12.400Z,40.56
2024-02-13T04:18:43.192Z,40.56
2024-02-13T04:19:13.982Z,40.56
2024-02-13T04:19:44.696Z,40.56
2024-02-13T04:20:15.308Z,40.56
2024-02-13T04:20:45.970Z,40.56
2024-02-13T04:21:16.596Z,40.56
2024-02-13T04:21:47.246Z,40.56
2024-02-13T04:22:17.914Z,40.56
2024-02-13T04:22:48.573Z,40.56
2024-02-13T04:23:19.229Z,40.56
2024-02-13T04:23:49.979Z,40.56
2024-02-13T04:24:20.658Z,40.56
2024-02-13T04:24:51.391Z,40.56
2024-02-13T04:25:22.051Z,40.56
2024-02-13T04:25:52.703Z,40.56
2024-02-13T04:26:31.195Z,40.56
2024-02-13T04:26:53.924Z,40.56
2024-02-13T04:27:24.603Z,40.56
2024-02-13T04:27:55.226Z,40.56
2024-02-13T04:28:25.864Z,40.56
2024-02-13T04:28:56.496Z,40.56
2024-02-13T04:29:27.313Z,40.56
2024-02-13T04:29:58.014Z,40.56
2024-02-13T04:30:28.659Z,40.56
2024-02-13T04:30:59.283Z,40.56
2024-02-13T04:31:29.951Z,40.56
2024-02-13T04:32:00.729Z,40.56
2024-02-13T04:32:31.558Z,40.56
2024-02-13T04:33:02.464Z,40.56
2024-02-13T04:33:33.162Z,40.56
2024-02-13T04:34:04.235Z,40.56
2024-02-13T04:34:34.554Z,40.56
2024-02-13T04:35:05.242Z,40.56
2024-02-13T04:35:35.965Z,40.56
2024-02-13T04:36:06.632Z,40.56
2024-02-13T04:36:37.265Z,40.56
2024-02-13T04:37:07.911Z,40.56
2024-02-13T04:37:38.588Z,40.56
2024-02-13T04:38:09.229Z,40.56
2024-02-13T04:38:39.878Z,40.56
2024-02-13T04:39:10.530Z,40.56
2024-02-13T04:39:41.215Z,40.66
2024-02-13T04:40:14.404Z,40.66
2024-02-13T04:40:42.714Z,40.66
2024-02-13T04:41:13.412Z,40.66
2024-02-13T04:41:44.064Z,40.66
2024-02-13T04:42:14.707Z,40.66
2024-02-13T04:42:45.353Z,40.66
2024-02-13T04:43:15.990Z,40.66
2024-02-13T04:43:46.635Z,40.66
2024-02-13T04:44:17.378Z,40.66
2024-02-13T04:44:48.163Z,40.66
2024-02-13T04:45:18.785Z,40.66
2024-02-13T04:45:49.427Z,40.66
2024-02-13T04:46:20.095Z,40.66
2024-02-13T04:46:50.748Z,40.76
2024-02-13T04:47:21.468Z,40.76
2024-02-13T04:47:52.157Z,40.76
2024-02-13T04:48:22.912Z,40.76
2024-02-13T04:48:53.731Z,40.86
2024-02-13T04:49:24.524Z,40.86
2024-02-13T04:49:55.340Z,40.86
2024-02-13T04:50:26.084Z,40.86
2024-02-13T04:50:56.745Z,40.86
2024-02-13T04:51:27.368Z,40.96
2024-02-13T04:51:58.003Z,40.96
2024-02-13T04:52:28.648Z,40.96
2024-02-13T04:52:59.298Z,40.96
2024-02-13T04:53:29.997Z,40.96
2024-02-13T04:54:00.683Z,41.06
2024-02-13T04:54:31.323Z,40.96
2024-02-13T04:55:02.020Z,41.06
2024-02-13T04:55:32.663Z,41.06
2024-02-13T04:56:03.288Z,41.06
2024-02-13T04:56:33.996Z,41.06
2024-02-13T04:57:04.599Z,41.06
2024-02-13T04:57:35.324Z,41.06
2024-02-13T04:58:05.936Z,41.06
2024-02-13T04:58:36.613Z,41.06
2024-02-13T04:59:07.275Z,41.06
2024-02-13T04:59:37.947Z,41.06
2024-02-13T05:00:08.616Z,41.06
2024-02-13T05:00:39.297Z,41.06
2024-02-13T05:01:09.952Z,41.06
2024-02-13T05:01:40.824Z,41.06
2024-02-13T05:02:11.579Z,40.96
2024-02-13T05:02:42.269Z,41.06
2024-02-13T05:03:12.905Z,40.96
2024-02-13T05:03:43.587Z,40.96
2024-02-13T05:04:14.240Z,40.96
2024-02-13T05:04:44.950Z,40.96
2024-02-13T05:05:15.666Z,40.96
2024-02-13T05:05:46.397Z,40.96
2024-02-13T05:06:17.189Z,40.96
2024-02-13T05:06:47.893Z,40.86
2024-02-13T05:07:18.500Z,40.86
2024-02-13T05:07:49.200Z,40.86
2024-02-13T05:08:19.827Z,40.96
2024-02-13T05:08:50.525Z,40.96
2024-02-13T05:09:21.133Z,40.96
2024-02-13T05:09:51.780Z,41.06
2024-02-13T05:10:22.610Z,41.06
2024-02-13T05:10:53.259Z,41.06
2024-02-13T05:11:24.052Z,41.16
2024-02-13T05:11:54.835Z,41.06
2024-02-13T05:12:25.492Z,41.16
2024-02-13T05:12:56.176Z,41.16
2024-02-13T05:13:26.804Z,41.16
2024-02-13T05:13:59.888Z,41.16
2024-02-13T05:14:28.470Z,41.16
2024-02-13T05:14:59.123Z,41.27
2024-02-13T05:15:29.787Z,41.16
2024-02-13T05:16:00.436Z,41.27
2024-02-13T05:16:31.102Z,41.27
2024-02-13T05:17:01.722Z,41.27
2024-02-13T05:17:32.496Z,41.27
2024-02-13T05:18:03.299Z,41.27
2024-02-13T05:18:34.210Z,41.27
2024-02-13T05:19:04.928Z,41.27
2024-02-13T05:19:35.557Z,41.27
2024-02-13T05:20:06.214Z,41.27
2024-02-13T05:20:36.952Z,41.36
2024-02-13T05:21:07.582Z,41.36
2024-02-13T05:21:38.229Z,41.36
2024-02-13T05:22:08.889Z,41.16
2024-02-13T05:22:39.544Z,41.36
2024-02-13T05:23:10.197Z,41.36
2024-02-13T05:23:40.858Z,41.36
2024-02-13T05:24:11.498Z,41.36
2024-02-13T05:24:42.127Z,41.36
2024-02-13T05:25:12.796Z,41.36
2024-02-13T05:25:43.471Z,41.36
2024-02-13T05:26:14.166Z,41.36
2024-02-13T05:26:44.888Z,41.27
2024-02-13T05:27:15.574Z,41.27
2024-02-13T05:27:46.155Z,41.27
2024-02-13T05:28:16.800Z,41.27
2024-02-13T05:28:47.488Z,41.27
2024-02-13T05:29:18.176Z,41.27
2024-02-13T05:29:48.826Z,41.27
2024-02-13T05:30:19.529Z,41.27
2024-02-13T05:30:50.192Z,41.27
2024-02-13T05:31:20.827Z,41.27
2024-02-13T05:31:51.499Z,41.16
2024-02-13T05:32:22.185Z,41.27
2024-02-13T05:32:52.938Z,41.16
2024-02-13T05:33:23.883Z,41.16
2024-02-13T05:33:54.823Z,41.16
2024-02-13T05:34:25.523Z,41.16
2024-02-13T05:34:56.142Z,41.16
2024-02-13T05:35:26.831Z,41.16
2024-02-13T05:35:59.386Z,41.16
2024-02-13T05:36:28.081Z,41.16
2024-02-13T05:36:58.734Z,41.16
2024-02-13T05:37:29.380Z,41.16
2024-02-13T05:38:00.061Z,41.16
2024-02-13T05:38:30.706Z,41.16
2024-02-13T05:39:01.377Z,41.16
2024-02-13T05:39:32.041Z,41.16
2024-02-13T05:40:02.687Z,41.16
2024-02-13T05:40:34.875Z,41.16
2024-02-13T05:41:03.944Z,41.16
2024-02-13T05:41:34.637Z,41.16
2024-02-13T05:42:05.352Z,41.16
2024-02-13T05:42:36.014Z,41.16
2024-02-13T05:43:06.639Z,41.16
2024-02-13T05:43:37.300Z,41.16
2024-02-13T05:44:07.946Z,41.16
2024-02-13T05:44:38.626Z,41.06
2024-02-13T05:45:09.254Z,41.16
2024-02-13T05:45:39.886Z,41.06
2024-02-13T05:46:10.583Z,41.06
2024-02-13T05:46:41.258Z,41.16
2024-02-13T05:47:11.949Z,41.16
2024-02-13T05:47:42.777Z,41.06
2024-02-13T05:48:13.415Z,41.16
2024-02-13T05:48:44.638Z,41.06
2024-02-13T05:49:14.936Z,41.16
2024-02-13T05:49:45.586Z,41.06
2024-02-13T05:50:16.214Z,41.06
2024-02-13T05:50:46.948Z,41.06
2024-02-13T05:51:17.707Z,41.16
2024-02-13T05:51:48.334Z,41.06
2024-02-13T05:52:18.978Z,41.16
2024-02-13T05:52:49.643Z,41.06
2024-02-13T05:53:20.334Z,41.16
2024-02-13T05:53:51.045Z,41.16
2024-02-13T05:54:21.896Z,41.06
2024-02-13T05:54:52.623Z,41.16
2024-02-13T05:55:23.278Z,41.06
2024-02-13T05:55:53.907Z,41.16
2024-02-13T05:56:28.069Z,41.16
2024-02-13T05:56:55.338Z,41.06
2024-02-13T05:57:25.973Z,41.16
2024-02-13T05:57:56.632Z,41.06
2024-02-13T05:58:27.277Z,41.16
2024-02-13T05:58:57.939Z,41.16
2024-02-13T05:59:28.655Z,41.06
2024-02-13T05:59:59.350Z,41.06
2024-02-13T06:00:30.071Z,41.06
2024-02-13T06:01:00.733Z,41.06
2024-02-13T06:01:31.496Z,41.06
2024-02-13T06:02:02.097Z,41.06
2024-02-13T06:02:32.820Z,41.06
2024-02-13T06:03:03.489Z,40.96
2024-02-13T06:03:34.482Z,41.06
2024-02-13T06:04:04.741Z,41.06
2024-02-13T06:04:35.380Z,41.06
2024-02-13T06:05:06.042Z,41.06
2024-02-13T06:05:36.859Z,41.16
2024-02-13T06:06:07.663Z,41.06
2024-02-13T06:06:38.920Z,41.16
2024-02-13T06:07:09.205Z,41.16
2024-02-13T06:07:39.863Z,41.16
2024-02-13T06:08:10.559Z,41.27
2024-02-13T06:08:41.277Z,41.27
2024-02-13T06:09:11.892Z,41.27
2024-02-13T06:09:42.556Z,41.27
2024-02-13T06:10:13.194Z,41.25
2024-02-13T06:10:43.877Z,41.27
2024-02-13T06:11:14.531Z,41.36
2024-02-13T06:11:45.286Z,41.35
2024-02-13T06:12:15.966Z,41.35
2024-02-13T06:12:46.574Z,41.36
2024-02-13T06:13:17.234Z,41.35
2024-02-13T06:13:47.883Z,41.36
2024-02-13T06:14:18.553Z,41.35
2024-02-13T06:14:49.408Z,41.35
2024-02-13T06:15:20.085Z,41.25
2024-02-13T06:15:50.725Z,41.47
2024-02-13T06:16:21.414Z,41.45
2024-02-13T06:16:52.118Z,41.45
2024-02-13T06:17:22.773Z,41.45
2024-02-13T06:17:53.463Z,41.45
2024-02-13T06:18:24.390Z,41.55
2024-02-13T06:18:54.772Z,41.55
2024-02-13T06:19:25.673Z,41.55
2024-02-13T06:19:56.322Z,41.45
2024-02-13T06:20:27.003Z,41.65
2024-02-13T06:20:57.809Z,41.75
2024-02-13T06:21:28.511Z,41.85
2024-02-13T06:21:59.197Z,41.75
2024-02-13T06:22:29.845Z,41.85
2024-02-13T06:23:00.532Z,41.85
2024-02-13T06:23:31.208Z,41.75
2024-02-13T06:24:01.867Z,41.75
2024-02-13T06:24:32.485Z,41.95
2024-02-13T06:25:03.153Z,42.05
2024-02-13T06:25:33.815Z,41.85
2024-02-13T06:26:04.509Z,41.95
2024-02-13T06:26:35.204Z,42.05
2024-02-13T06:27:05.926Z,42.05
2024-02-13T06:27:36.564Z,42.05
2024-02-13T06:28:07.202Z,42.25
2024-02-13T06:28:37.827Z,42.25
2024-02-13T06:29:08.500Z,42.15
2024-02-13T06:29:39.212Z,42.05
2024-02-13T06:30:09.813Z,42.05
2024-02-13T06:30:40.544Z,42.05
2024-02-13T06:31:11.181Z,41.95
2024-02-13T06:31:41.874Z,42.15
2024-02-13T06:32:12.615Z,42.15
2024-02-13T06:32:43.290Z,42.15
2024-02-13T06:33:14.250Z,42.35
2024-02-13T06:33:44.792Z,42.05
2024-02-13T06:34:15.244Z,42.15
2024-02-13T06:34:45.972Z,42.35
2024-02-13T06:35:16.697Z,42.15